Hjorring, Denmark
Current Conditions -  °F | °C
As of 1:20 PM on Friday 28 Nov 2014 (Local Time) from EKYT Reporting Station
Broken Clouds Broken Clouds  
Wind Chill: 37°   Ceiling: 20000
Heat Index: 45°   Visibility: 6mi
Dew Point: 34°   Wind: 20mph
Humidity: 66%   Direction: 110°ESE
Pressure: 30.24"   Gusts: NA
Location:  57.46°N, 9.98°E
Report Text: EKYT 281220Z 11017KT 9999 FEW024 BKN200 07/01 Q1024
Loading
Personal Weather Stations






























Interactive Weather Map New forecast layout! Learn more

10-Day Weather Forecast

Advertisements
Track Severe Weather on mobile